createdAt,value
2018-02-11T00:00:27.929Z,98.28
2018-02-11T00:01:01.928Z,89.78
2018-02-11T00:01:35.827Z,93.32
2018-02-11T00:02:09.695Z,94.75
2018-02-11T00:02:43.591Z,96.32
2018-02-11T00:03:17.490Z,97.72
2018-02-11T00:03:51.392Z,87.47
2018-02-11T00:04:25.263Z,91.35
2018-02-11T00:04:59.290Z,91.95
2018-02-11T00:05:33.402Z,96.15
2018-02-11T00:06:07.604Z,89.00
2018-02-11T00:06:41.544Z,95.00
2018-02-11T00:07:15.450Z,89.95
2018-02-11T00:07:49.442Z,96.18
2018-02-11T00:08:23.395Z,81.43
2018-02-11T00:08:59.282Z,97.22
2018-02-11T00:09:33.197Z,91.90
2018-02-11T00:10:08.745Z,85.57
2018-02-11T00:10:42.698Z,95.12
2018-02-11T00:11:16.787Z,90.62
2018-02-11T00:11:50.962Z,91.60
2018-02-11T00:12:25.643Z,95.82
2018-02-11T00:13:00.224Z,99.15
2018-02-11T00:13:34.384Z,96.85
2018-02-11T00:14:08.316Z,92.30
2018-02-11T00:14:42.188Z,86.22
2018-02-11T00:15:16.030Z,90.15
2018-02-11T00:15:49.936Z,89.68
2018-02-11T00:16:23.935Z,89.30
2018-02-11T00:16:58.246Z,96.28
2018-02-11T00:17:33.201Z,88.35
2018-02-11T00:18:07.991Z,101.18
2018-02-11T00:18:42.264Z,98.05
2018-02-11T00:19:16.145Z,89.30
2018-02-11T00:19:50.088Z,90.45
2018-02-11T00:20:24.029Z,91.47
2018-02-11T00:20:59.280Z,87.03
2018-02-11T00:21:34.113Z,98.03
2018-02-11T00:22:08.104Z,97.07
2018-02-11T00:22:43.333Z,91.43
2018-02-11T00:23:17.318Z,90.93
2018-02-11T00:23:51.297Z,95.05
2018-02-11T00:24:25.212Z,92.90
2018-02-11T00:24:59.241Z,96.72
2018-02-11T00:25:33.268Z,89.15
2018-02-11T00:26:07.332Z,85.47
2018-02-11T00:26:41.829Z,89.28
2018-02-11T00:27:16.725Z,87.03
2018-02-11T00:27:50.871Z,100.18
2018-02-11T00:28:24.753Z,86.18
2018-02-11T00:28:58.752Z,94.60
2018-02-11T00:29:32.753Z,95.07
2018-02-11T00:30:07.533Z,87.18
2018-02-11T00:30:41.464Z,89.30
2018-02-11T00:31:15.320Z,93.40
2018-02-11T00:31:49.793Z,90.35
2018-02-11T00:32:24.342Z,90.10
2018-02-11T00:32:58.264Z,82.07
2018-02-11T00:33:32.216Z,98.30
2018-02-11T00:34:06.145Z,96.47
2018-02-11T00:34:40.017Z,85.38
2018-02-11T00:35:13.889Z,86.68
2018-02-11T00:35:50.032Z,96.43
2018-02-11T00:36:24.119Z,91.78
2018-02-11T00:36:58.834Z,87.28
2018-02-11T00:37:38.973Z,85.65
2018-02-11T00:38:13.024Z,94.55
2018-02-11T00:38:47.121Z,93.25
2018-02-11T00:39:20.988Z,93.45
2018-02-11T00:39:55.058Z,95.47
2018-02-11T00:40:29.175Z,88.45
2018-02-11T00:41:03.324Z,91.68
2018-02-11T00:41:37.180Z,88.03
2018-02-11T00:42:11.097Z,87.50
2018-02-11T00:42:45.031Z,85.68
2018-02-11T00:43:18.952Z,85.28
2018-02-11T00:43:53.543Z,90.50
2018-02-11T00:44:28.429Z,88.03
2018-02-11T00:45:02.368Z,85.62
2018-02-11T00:45:36.273Z,84.80
2018-02-11T00:46:11.689Z,98.62
2018-02-11T00:46:46.961Z,91.05
2018-02-11T00:47:20.858Z,98.85
2018-02-11T00:47:57.633Z,99.15
2018-02-11T00:48:31.654Z,86.97
2018-02-11T00:49:06.337Z,89.25
2018-02-11T00:49:40.402Z,92.07
2018-02-11T00:50:14.459Z,95.15
2018-02-11T00:50:48.536Z,87.60
2018-02-11T00:51:23.276Z,99.82
2018-02-11T00:51:58.326Z,89.40
2018-02-11T00:52:32.359Z,80.18
2018-02-11T00:53:06.587Z,88.28
2018-02-11T00:53:40.934Z,90.97
2018-02-11T00:54:15.001Z,82.93
2018-02-11T00:54:49.269Z,87.18
2018-02-11T00:55:23.161Z,85.07
2018-02-11T00:55:58.895Z,84.25
2018-02-11T00:56:32.867Z,86.63
2018-02-11T00:57:06.815Z,83.80
2018-02-11T00:57:40.672Z,86.63
2018-02-11T00:58:14.580Z,91.75
2018-02-11T00:58:49.142Z,85.65
2018-02-11T00:59:23.410Z,86.95
2018-02-11T00:59:57.906Z,95.03
2018-02-11T01:00:32.012Z,94.10
2018-02-11T01:01:06.843Z,95.90
2018-02-11T01:01:41.501Z,84.20
2018-02-11T01:02:16.781Z,88.30
2018-02-11T01:02:50.672Z,83.93
2018-02-11T01:03:25.385Z,87.68
2018-02-11T01:03:59.296Z,90.38
2018-02-11T01:04:33.379Z,87.88
2018-02-11T01:05:07.313Z,95.05
2018-02-11T01:05:41.201Z,88.03
2018-02-11T01:06:15.604Z,86.25
2018-02-11T01:06:49.719Z,88.25
2018-02-11T01:07:26.417Z,89.62
2018-02-11T01:08:01.210Z,83.80
2018-02-11T01:08:35.202Z,86.85
2018-02-11T01:09:09.224Z,92.70
2018-02-11T01:09:44.516Z,86.22
2018-02-11T01:10:19.016Z,99.47
2018-02-11T01:10:53.314Z,86.03
2018-02-11T01:11:28.200Z,80.20
2018-02-11T01:12:02.127Z,87.72
2018-02-11T01:12:35.992Z,88.78
2018-02-11T01:13:09.993Z,86.30
2018-02-11T01:13:43.888Z,87.47
2018-02-11T01:14:19.504Z,84.05
2018-02-11T01:14:54.731Z,87.55
2018-02-11T01:15:29.131Z,84.30
2018-02-11T01:16:03.092Z,85.03
2018-02-11T01:16:38.121Z,85.70
2018-02-11T01:17:12.462Z,86.22
2018-02-11T01:17:46.399Z,87.68
2018-02-11T01:18:21.009Z,84.45
2018-02-11T01:18:55.968Z,83.68
2018-02-11T01:19:29.853Z,86.50
2018-02-11T01:20:03.798Z,78.37
2018-02-11T01:20:37.717Z,81.35
2018-02-11T01:21:11.990Z,89.13
2018-02-11T01:21:46.958Z,88.53
2018-02-11T01:22:21.117Z,91.55
2018-02-11T01:22:56.452Z,82.28
2018-02-11T01:23:33.752Z,75.95
2018-02-11T01:24:07.925Z,86.63
2018-02-11T01:24:43.642Z,90.97
2018-02-11T01:25:17.817Z,86.20
2018-02-11T01:25:51.902Z,73.22
2018-02-11T01:26:26.245Z,82.12
2018-02-11T01:27:00.268Z,86.37
2018-02-11T01:27:35.728Z,96.57
2018-02-11T01:28:10.922Z,85.18
2018-02-11T01:28:45.480Z,90.43
2018-02-11T01:29:19.660Z,93.65
2018-02-11T01:29:53.576Z,86.82
2018-02-11T01:30:28.187Z,111.40
2018-02-11T01:31:03.150Z,118.15
2018-02-11T01:31:41.265Z,155.98
2018-02-11T01:32:15.798Z,90.55
2018-02-11T01:32:49.959Z,106.63
2018-02-11T01:33:24.249Z,95.75
2018-02-11T01:33:58.550Z,89.60
2018-02-11T01:34:33.369Z,118.18
2018-02-11T01:35:07.260Z,95.62
2018-02-11T01:35:41.285Z,90.40
2018-02-11T01:36:15.206Z,95.47
2018-02-11T01:36:50.289Z,95.85
2018-02-11T01:37:24.840Z,87.82
2018-02-11T01:37:59.811Z,88.05
2018-02-11T01:38:34.184Z,79.97
2018-02-11T01:39:08.697Z,79.68
2018-02-11T01:39:43.328Z,78.43
2018-02-11T01:40:22.050Z,89.53
2018-02-11T01:40:57.137Z,103.15
2018-02-11T01:41:32.728Z,82.93
2018-02-11T01:42:07.683Z,94.30
2018-02-11T01:42:41.562Z,80.70
2018-02-11T01:43:16.325Z,91.25
2018-02-11T01:43:50.274Z,102.80
2018-02-11T01:44:24.673Z,99.55
2018-02-11T01:44:58.560Z,84.82
2018-02-11T01:45:32.540Z,97.93
2018-02-11T01:46:06.519Z,88.30
2018-02-11T01:46:40.423Z,84.80
2018-02-11T01:47:14.300Z,88.80
2018-02-11T01:47:48.441Z,79.65
2018-02-11T01:48:23.348Z,83.70
2018-02-11T01:48:57.217Z,91.40
2018-02-11T01:49:32.090Z,82.40
2018-02-11T01:50:11.796Z,91.63
2018-02-11T01:50:46.175Z,92.12
2018-02-11T01:51:20.134Z,90.97
2018-02-11T01:51:54.409Z,85.25
2018-02-11T01:52:28.934Z,91.12
2018-02-11T01:53:03.081Z,84.45
2018-02-11T01:53:39.938Z,99.62
2018-02-11T01:54:14.515Z,80.43
2018-02-11T01:54:48.563Z,86.35
2018-02-11T01:55:22.903Z,85.80
2018-02-11T01:55:56.834Z,84.22
2018-02-11T01:56:31.369Z,95.43
2018-02-11T01:57:05.501Z,96.35
2018-02-11T01:57:41.673Z,83.12
2018-02-11T01:58:15.585Z,89.15
2018-02-11T01:58:49.900Z,86.93
2018-02-11T01:59:24.855Z,90.45
2018-02-11T01:59:59.654Z,83.07
2018-02-11T02:00:34.040Z,82.70
2018-02-11T02:01:08.163Z,89.28
2018-02-11T02:01:43.445Z,81.57
2018-02-11T02:02:17.361Z,85.75
2018-02-11T02:02:51.275Z,86.43
2018-02-11T02:03:25.335Z,83.55
2018-02-11T02:03:59.213Z,76.72
2018-02-11T02:04:33.268Z,88.03
2018-02-11T02:05:07.467Z,78.45
2018-02-11T02:05:41.522Z,80.65
2018-02-11T02:06:15.490Z,78.55
2018-02-11T02:06:49.822Z,79.85
2018-02-11T02:07:25.972Z,83.82
2018-02-11T02:07:59.877Z,73.18
2018-02-11T02:08:35.012Z,84.65
2018-02-11T02:09:10.029Z,79.72
2018-02-11T02:09:44.258Z,87.68
2018-02-11T02:10:18.627Z,75.22
2018-02-11T02:10:52.674Z,74.70
2018-02-11T02:11:27.643Z,84.78
2018-02-11T02:12:01.580Z,82.10
2018-02-11T02:12:35.767Z,81.22
2018-02-11T02:13:09.784Z,78.18
2018-02-11T02:13:44.499Z,76.85
2018-02-11T02:14:18.724Z,78.20
2018-02-11T02:14:54.022Z,83.10
2018-02-11T02:15:28.310Z,77.50
2018-02-11T02:16:02.715Z,84.57
2018-02-11T02:16:36.645Z,82.93
2018-02-11T02:17:11.484Z,75.35
2018-02-11T02:17:47.181Z,76.32
2018-02-11T02:18:22.232Z,76.72
2018-02-11T02:18:56.212Z,77.05
2018-02-11T02:19:30.080Z,83.90
2018-02-11T02:20:04.037Z,79.40
2018-02-11T02:20:38.070Z,78.50
2018-02-11T02:21:12.699Z,75.50
2018-02-11T02:21:46.551Z,83.57
2018-02-11T02:22:20.437Z,80.62
2018-02-11T02:22:54.390Z,72.22
2018-02-11T02:23:29.285Z,80.60
2018-02-11T02:24:03.556Z,80.10
2018-02-11T02:24:38.787Z,76.85
2018-02-11T02:25:13.334Z,79.70
2018-02-11T02:25:47.322Z,74.62
2018-02-11T02:26:21.642Z,76.40
2018-02-11T02:26:55.807Z,79.75
2018-02-11T02:27:31.559Z,81.05
2018-02-11T02:28:06.210Z,87.78
2018-02-11T02:28:40.858Z,87.18
2018-02-11T02:29:15.609Z,80.32
2018-02-11T02:29:50.148Z,79.55
2018-02-11T02:30:25.556Z,79.53
2018-02-11T02:30:59.745Z,75.00
2018-02-11T02:31:34.208Z,79.60
2018-02-11T02:32:08.957Z,72.18
2018-02-11T02:32:44.320Z,81.70
2018-02-11T02:33:18.435Z,84.70
2018-02-11T02:33:53.098Z,82.03
2018-02-11T02:34:27.075Z,81.20
2018-02-11T02:35:01.527Z,86.10
2018-02-11T02:35:35.434Z,80.87
2018-02-11T02:36:09.340Z,86.85
2018-02-11T02:36:43.215Z,76.93
2018-02-11T02:37:17.232Z,79.12
2018-02-11T02:37:51.104Z,83.03
2018-02-11T02:38:25.187Z,96.85
2018-02-11T02:38:59.077Z,76.22
2018-02-11T02:39:33.020Z,72.50
2018-02-11T02:40:06.948Z,81.70
2018-02-11T02:40:40.988Z,82.05
2018-02-11T02:41:14.881Z,80.07
2018-02-11T02:41:49.860Z,81.25
2018-02-11T02:42:23.742Z,78.75
2018-02-11T02:42:57.774Z,76.93
2018-02-11T02:43:32.608Z,76.28
2018-02-11T02:44:06.588Z,78.62
2018-02-11T02:44:42.311Z,80.60
2018-02-11T02:45:17.529Z,78.37
2018-02-11T02:45:53.415Z,71.53
2018-02-11T02:46:27.587Z,76.07
2018-02-11T02:47:01.476Z,82.37
2018-02-11T02:47:35.333Z,71.60
2018-02-11T02:48:09.265Z,80.10
2018-02-11T02:48:43.276Z,82.80
2018-02-11T02:49:17.217Z,80.97
2018-02-11T02:49:51.061Z,79.03
2018-02-11T02:50:25.053Z,80.95
2018-02-11T02:50:58.957Z,72.97
2018-02-11T02:51:32.838Z,72.32
2018-02-11T02:52:06.705Z,71.43
2018-02-11T02:52:40.641Z,77.78
2018-02-11T02:53:14.704Z,73.00
2018-02-11T02:53:48.555Z,75.15
2018-02-11T02:54:22.552Z,68.37
2018-02-11T02:54:56.447Z,78.78
2018-02-11T02:55:30.392Z,80.20
2018-02-11T02:56:04.572Z,76.62
2018-02-11T02:56:38.465Z,76.25
2018-02-11T02:57:12.328Z,77.57
2018-02-11T02:57:46.205Z,74.68
2018-02-11T02:58:20.097Z,70.07
2018-02-11T02:58:53.989Z,80.93
2018-02-11T02:59:27.883Z,81.50
2018-02-11T03:00:01.832Z,78.65
2018-02-11T03:00:36.497Z,77.57
2018-02-11T03:01:10.440Z,78.35
2018-02-11T03:01:44.356Z,74.15
2018-02-11T03:02:18.264Z,78.82
2018-02-11T03:02:52.301Z,76.90
2018-02-11T03:03:26.174Z,82.93
2018-02-11T03:04:00.173Z,73.70
2018-02-11T03:04:34.033Z,76.35
2018-02-11T03:05:07.905Z,75.80
2018-02-11T03:05:41.764Z,69.90
2018-02-11T03:06:15.734Z,75.12
2018-02-11T03:06:49.668Z,77.90
2018-02-11T03:07:23.555Z,75.35
2018-02-11T03:07:57.407Z,72.28
2018-02-11T03:08:31.284Z,77.40
2018-02-11T03:09:05.192Z,71.05
2018-02-11T03:09:39.073Z,72.25
2018-02-11T03:10:13.064Z,78.35
2018-02-11T03:10:46.957Z,75.82
2018-02-11T03:11:20.859Z,77.30
2018-02-11T03:11:54.771Z,80.50
2018-02-11T03:12:28.653Z,80.07
2018-02-11T03:13:02.633Z,72.75
2018-02-11T03:13:36.493Z,68.90
2018-02-11T03:14:10.476Z,77.22
2018-02-11T03:14:44.449Z,73.87
2018-02-11T03:15:18.382Z,73.05
2018-02-11T03:15:52.287Z,79.37
2018-02-11T03:16:26.168Z,76.40
2018-02-11T03:17:00.075Z,78.05
2018-02-11T03:17:34.094Z,71.68
2018-02-11T03:18:08.013Z,72.60
2018-02-11T03:18:41.948Z,77.20
2018-02-11T03:19:16.551Z,70.57
2018-02-11T03:19:50.446Z,70.07
2018-02-11T03:20:24.363Z,70.35
2018-02-11T03:20:58.384Z,71.87
2018-02-11T03:21:32.341Z,68.10
2018-02-11T03:22:06.264Z,72.95
2018-02-11T03:22:40.155Z,73.03
2018-02-11T03:23:14.120Z,67.43
2018-02-11T03:23:48.039Z,74.55
2018-02-11T03:24:22.021Z,81.18
2018-02-11T03:24:55.892Z,75.53
2018-02-11T03:25:29.808Z,76.12
2018-02-11T03:26:03.928Z,76.53
2018-02-11T03:26:37.830Z,77.62
2018-02-11T03:27:11.745Z,77.40
2018-02-11T03:27:45.652Z,67.10
2018-02-11T03:28:19.620Z,71.60
2018-02-11T03:28:53.480Z,73.15
2018-02-11T03:29:27.434Z,71.97
2018-02-11T03:30:01.659Z,74.87
2018-02-11T03:30:35.577Z,70.30
2018-02-11T03:31:09.500Z,76.70
2018-02-11T03:31:43.501Z,73.95
2018-02-11T03:32:17.392Z,69.95
2018-02-11T03:32:51.309Z,69.80
2018-02-11T03:33:25.203Z,73.00
2018-02-11T03:33:59.262Z,77.85
2018-02-11T03:34:33.227Z,74.93
2018-02-11T03:35:07.130Z,78.20
2018-02-11T03:35:41.053Z,79.65
2018-02-11T03:36:15.041Z,80.95
2018-02-11T03:36:49.129Z,76.87
2018-02-11T03:37:23.018Z,75.72
2018-02-11T03:37:57.006Z,74.70
2018-02-11T03:38:30.916Z,76.12
2018-02-11T03:39:04.793Z,78.28
2018-02-11T03:39:38.926Z,80.38
2018-02-11T03:40:12.826Z,76.15
2018-02-11T03:40:46.870Z,70.12
2018-02-11T03:41:20.793Z,75.03
2018-02-11T03:41:54.962Z,75.00
2018-02-11T03:42:29.039Z,66.80
2018-02-11T03:43:02.976Z,77.03
2018-02-11T03:43:36.841Z,73.57
2018-02-11T03:44:10.726Z,76.87
2018-02-11T03:44:44.673Z,74.65
2018-02-11T03:45:18.660Z,75.82
2018-02-11T03:45:52.581Z,71.25
2018-02-11T03:46:26.500Z,72.25
2018-02-11T03:47:00.473Z,70.72
2018-02-11T03:47:34.540Z,69.12
2018-02-11T03:48:08.391Z,78.20
2018-02-11T03:48:42.264Z,74.00
2018-02-11T03:49:16.149Z,72.43
2018-02-11T03:49:50.036Z,76.20
2018-02-11T03:50:23.914Z,77.43
2018-02-11T03:50:58.127Z,78.45
2018-02-11T03:51:32.216Z,74.75
2018-02-11T03:52:06.135Z,81.00
2018-02-11T03:52:40.120Z,71.93
2018-02-11T03:53:13.995Z,87.15
2018-02-11T03:53:47.928Z,76.35
2018-02-11T03:54:21.802Z,70.93
2018-02-11T03:54:55.716Z,73.12
2018-02-11T03:55:29.754Z,78.07
2018-02-11T03:56:03.624Z,75.22
2018-02-11T03:56:37.489Z,80.57
2018-02-11T03:57:11.402Z,77.80
2018-02-11T03:57:45.279Z,76.35
2018-02-11T03:58:19.172Z,77.37
2018-02-11T03:58:53.153Z,73.57
2018-02-11T03:59:27.022Z,80.60
2018-02-11T04:00:00.889Z,71.50
2018-02-11T04:00:35.062Z,79.68
2018-02-11T04:01:08.937Z,78.28
2018-02-11T04:01:42.817Z,78.25
2018-02-11T04:02:16.713Z,71.85
2018-02-11T04:02:50.619Z,79.80
2018-02-11T04:03:24.484Z,79.85
2018-02-11T04:03:58.336Z,68.95
2018-02-11T04:04:32.275Z,80.22
2018-02-11T04:05:06.173Z,78.07
2018-02-11T04:05:40.434Z,75.97
2018-02-11T04:06:14.308Z,74.70
2018-02-11T04:06:48.171Z,74.03
2018-02-11T04:07:22.052Z,76.25
2018-02-11T04:07:55.925Z,77.78
2018-02-11T04:08:29.893Z,78.82
2018-02-11T04:09:03.784Z,82.88
2018-02-11T04:09:37.681Z,76.62
2018-02-11T04:10:11.605Z,75.12
2018-02-11T04:10:45.497Z,77.87
2018-02-11T04:11:19.408Z,88.43
2018-02-11T04:11:53.321Z,79.10
2018-02-11T04:12:27.249Z,79.50
2018-02-11T04:13:01.126Z,75.72
2018-02-11T04:13:35.230Z,74.53
2018-02-11T04:14:09.103Z,75.55
2018-02-11T04:14:43.010Z,77.30
2018-02-11T04:15:16.891Z,74.80
2018-02-11T04:15:50.784Z,78.65
2018-02-11T04:16:24.833Z,77.10
2018-02-11T04:16:58.772Z,80.38
2018-02-11T04:17:32.677Z,82.40
2018-02-11T04:18:06.570Z,75.57
2018-02-11T04:18:40.531Z,81.55
2018-02-11T04:19:14.452Z,74.47
2018-02-11T04:19:48.327Z,86.22
2018-02-11T04:20:22.171Z,74.60
2018-02-11T04:20:56.073Z,83.72
2018-02-11T04:21:29.943Z,79.90
2018-02-11T04:22:03.986Z,79.57
2018-02-11T04:22:37.935Z,80.10
2018-02-11T04:23:11.845Z,86.55
2018-02-11T04:23:46.098Z,80.35
2018-02-11T04:24:19.943Z,73.28
2018-02-11T04:24:53.794Z,75.90
2018-02-11T04:25:27.670Z,76.78
2018-02-11T04:26:01.578Z,75.78
2018-02-11T04:26:35.484Z,74.82
2018-02-11T04:27:09.349Z,74.82
2018-02-11T04:27:43.345Z,77.22
2018-02-11T04:28:17.339Z,72.75
2018-02-11T04:28:51.241Z,74.05
2018-02-11T04:29:25.104Z,75.72
2018-02-11T04:29:59.072Z,80.50
2018-02-11T04:30:32.939Z,78.72
2018-02-11T04:31:06.886Z,73.78
2018-02-11T04:31:40.797Z,78.07
2018-02-11T04:32:14.682Z,75.72
2018-02-11T04:32:48.807Z,73.10
2018-02-11T04:33:22.668Z,78.43
2018-02-11T04:33:56.641Z,80.35
2018-02-11T04:34:30.580Z,72.53
2018-02-11T04:35:04.739Z,80.82
2018-02-11T04:35:38.638Z,79.35
2018-02-11T04:36:12.627Z,74.28
2018-02-11T04:36:46.524Z,82.97
2018-02-11T04:37:20.514Z,80.20
2018-02-11T04:37:54.424Z,70.30
2018-02-11T04:38:28.289Z,73.28
2018-02-11T04:39:02.214Z,71.82
2018-02-11T04:39:36.305Z,80.97
2018-02-11T04:40:10.170Z,67.30
2018-02-11T04:40:44.080Z,77.68
2018-02-11T04:41:18.064Z,75.03
2018-02-11T04:41:51.984Z,73.80
2018-02-11T04:42:26.184Z,74.20
2018-02-11T04:43:00.270Z,79.20
2018-02-11T04:43:34.161Z,79.15
2018-02-11T04:44:08.185Z,84.43
2018-02-11T04:44:42.079Z,74.85
2018-02-11T04:45:16.038Z,75.00
2018-02-11T04:45:49.930Z,76.78
2018-02-11T04:46:23.855Z,71.65
2018-02-11T04:46:57.761Z,75.95
2018-02-11T04:47:31.660Z,78.07
2018-02-11T04:48:05.558Z,73.10
2018-02-11T04:48:39.789Z,74.32
2018-02-11T04:49:13.693Z,75.65
2018-02-11T04:49:47.810Z,76.65
2018-02-11T04:50:21.734Z,73.40
2018-02-11T04:50:55.593Z,73.75
2018-02-11T04:51:29.448Z,79.22
2018-02-11T04:52:03.572Z,79.45
2018-02-11T04:52:37.520Z,73.32
2018-02-11T04:53:11.444Z,77.78
2018-02-11T04:53:45.425Z,74.65
2018-02-11T04:54:19.308Z,76.68
2018-02-11T04:54:53.170Z,77.82
2018-02-11T04:55:27.320Z,74.87
2018-02-11T04:56:01.173Z,73.40
2018-02-11T04:56:35.316Z,79.80
2018-02-11T04:57:09.205Z,73.90
2018-02-11T04:57:43.147Z,73.12
2018-02-11T04:58:17.133Z,78.43
2018-02-11T04:58:51.302Z,77.60
2018-02-11T04:59:25.345Z,74.87
2018-02-11T04:59:59.217Z,69.85
2018-02-11T05:00:33.083Z,76.75
2018-02-11T05:01:07.004Z,73.72
2018-02-11T05:01:40.914Z,73.97
2018-02-11T05:02:14.998Z,75.35
2018-02-11T05:02:48.967Z,68.37
2018-02-11T05:03:23.034Z,73.82
2018-02-11T05:03:57.063Z,79.95
2018-02-11T05:04:30.944Z,77.47
2018-02-11T05:05:04.813Z,84.03
2018-02-11T05:05:38.948Z,77.10
2018-02-11T05:06:12.901Z,75.18
2018-02-11T05:06:46.761Z,75.00
2018-02-11T05:07:20.621Z,74.28
2018-02-11T05:07:54.740Z,77.05
2018-02-11T05:08:28.785Z,76.45
2018-02-11T05:09:02.731Z,78.93
2018-02-11T05:09:36.627Z,70.62
2018-02-11T05:10:10.569Z,71.40
2018-02-11T05:10:44.556Z,72.78
2018-02-11T05:11:18.545Z,75.60
2018-02-11T05:11:52.425Z,73.65
2018-02-11T05:12:26.303Z,70.40
2018-02-11T05:13:00.316Z,68.62
2018-02-11T05:13:34.345Z,69.95
2018-02-11T05:14:08.220Z,71.72
2018-02-11T05:14:42.091Z,82.05
2018-02-11T05:15:16.080Z,73.70
2018-02-11T05:15:50.141Z,67.05
2018-02-11T05:16:24.116Z,73.25
2018-02-11T05:16:58.339Z,72.32
2018-02-11T05:17:32.590Z,77.10
2018-02-11T05:18:06.503Z,73.80
2018-02-11T05:18:40.372Z,70.85
2018-02-11T05:19:14.229Z,72.62
2018-02-11T05:19:48.370Z,72.43
2018-02-11T05:20:22.224Z,73.07
2018-02-11T05:20:56.220Z,69.03
2018-02-11T05:21:30.132Z,74.82
2018-02-11T05:22:04.022Z,68.20
2018-02-11T05:22:37.973Z,71.93
2018-02-11T05:23:11.974Z,70.15
2018-02-11T05:23:45.884Z,71.82
2018-02-11T05:24:19.770Z,69.55
2018-02-11T05:24:53.712Z,73.35
2018-02-11T05:25:27.687Z,75.75
2018-02-11T05:26:01.565Z,66.40
2018-02-11T05:26:35.488Z,71.25
2018-02-11T05:27:09.528Z,74.97
2018-02-11T05:27:43.419Z,68.50
2018-02-11T05:28:17.615Z,69.80
2018-02-11T05:28:51.602Z,73.20
2018-02-11T05:29:25.721Z,67.30
2018-02-11T05:29:59.597Z,72.18
2018-02-11T05:30:33.486Z,72.15
2018-02-11T05:31:07.348Z,64.25
2018-02-11T05:31:41.316Z,74.15
2018-02-11T05:32:15.275Z,67.28
2018-02-11T05:32:49.431Z,71.07
2018-02-11T05:33:23.373Z,65.60
2018-02-11T05:33:57.502Z,65.78
2018-02-11T05:34:31.536Z,74.15
2018-02-11T05:35:05.426Z,67.45
2018-02-11T05:35:39.361Z,70.12
2018-02-11T05:36:13.232Z,66.95
2018-02-11T05:36:47.375Z,73.43
2018-02-11T05:37:21.292Z,70.95
2018-02-11T05:37:55.149Z,68.90
2018-02-11T05:38:29.004Z,62.15
2018-02-11T05:39:02.859Z,63.65
2018-02-11T05:39:36.775Z,72.55
2018-02-11T05:40:10.639Z,72.87
2018-02-11T05:40:44.606Z,66.72
2018-02-11T05:41:18.541Z,67.43
2018-02-11T05:41:52.406Z,69.12
2018-02-11T05:42:26.399Z,67.82
2018-02-11T05:43:00.256Z,75.28
2018-02-11T05:43:34.121Z,70.78
2018-02-11T05:44:08.070Z,76.20
2018-02-11T05:44:41.931Z,71.85
2018-02-11T05:45:16.014Z,69.50
2018-02-11T05:45:50.225Z,65.95
2018-02-11T05:46:24.276Z,70.22
2018-02-11T05:46:58.258Z,69.20
2018-02-11T05:47:32.318Z,67.28
2018-02-11T05:48:06.249Z,64.37
2018-02-11T05:48:40.309Z,59.63
2018-02-11T05:49:14.253Z,72.40
2018-02-11T05:49:48.207Z,64.55
2018-02-11T05:50:22.111Z,71.32
2018-02-11T05:50:56.176Z,67.60
2018-02-11T05:51:30.175Z,74.72
2018-02-11T05:52:04.180Z,65.57
2018-02-11T05:52:38.069Z,66.25
2018-02-11T05:53:11.977Z,73.80
2018-02-11T05:53:45.884Z,68.30
2018-02-11T05:54:19.879Z,68.32
2018-02-11T05:54:53.749Z,71.30
2018-02-11T05:55:27.615Z,65.00
2018-02-11T05:56:01.873Z,74.40
2018-02-11T05:56:35.845Z,63.70
2018-02-11T05:57:09.741Z,68.93
2018-02-11T05:57:43.685Z,68.50
2018-02-11T05:58:17.708Z,71.93
2018-02-11T05:58:51.691Z,67.90
2018-02-11T05:59:25.668Z,63.30
2018-02-11T05:59:59.577Z,75.82
2018-02-11T06:00:33.444Z,67.75
2018-02-11T06:01:07.453Z,70.35
2018-02-11T06:01:41.404Z,67.37
2018-02-11T06:02:15.248Z,56.47
2018-02-11T06:02:49.112Z,65.25
2018-02-11T06:03:22.979Z,69.72
2018-02-11T06:03:56.973Z,65.55
2018-02-11T06:04:30.929Z,60.78
2018-02-11T06:05:05.118Z,60.95
2018-02-11T06:05:39.029Z,67.62
2018-02-11T06:06:13.244Z,66.85
2018-02-11T06:06:47.247Z,72.07
2018-02-11T06:07:21.280Z,67.95
2018-02-11T06:07:55.153Z,65.55
2018-02-11T06:08:29.244Z,61.50
2018-02-11T06:09:03.411Z,62.20
2018-02-11T06:09:37.287Z,66.55
2018-02-11T06:10:11.437Z,74.65
2018-02-11T06:10:45.300Z,62.17
2018-02-11T06:11:19.154Z,61.92
2018-02-11T06:11:53.046Z,64.37
2018-02-11T06:12:26.943Z,69.28
2018-02-11T06:13:00.809Z,68.72
2018-02-11T06:13:34.680Z,62.17
2018-02-11T06:14:08.677Z,58.63
2018-02-11T06:14:42.556Z,61.75
2018-02-11T06:15:16.424Z,62.90
2018-02-11T06:15:50.381Z,61.03
2018-02-11T06:16:24.254Z,62.67
2018-02-11T06:16:58.152Z,70.43
2018-02-11T06:17:32.212Z,61.60
2018-02-11T06:18:06.358Z,64.20
2018-02-11T06:18:40.200Z,65.45
2018-02-11T06:19:14.054Z,74.03
2018-02-11T06:19:48.241Z,67.97
2018-02-11T06:20:22.272Z,68.00
2018-02-11T06:20:56.336Z,66.70
2018-02-11T06:21:30.225Z,63.90
2018-02-11T06:22:04.372Z,61.37
2018-02-11T06:22:38.476Z,65.93
2018-02-11T06:23:12.389Z,62.53
2018-02-11T06:23:46.260Z,61.15
2018-02-11T06:24:20.239Z,65.43
2018-02-11T06:24:54.126Z,67.00
2018-02-11T06:25:28.269Z,60.78
2018-02-11T06:26:02.164Z,61.40
2018-02-11T06:26:42.055Z,56.28
2018-02-11T06:27:15.959Z,62.25
2018-02-11T06:27:49.892Z,62.97
2018-02-11T06:28:23.777Z,65.72
2018-02-11T06:28:57.668Z,67.35
2018-02-11T06:29:31.664Z,65.87
2018-02-11T06:30:05.548Z,63.25
2018-02-11T06:30:39.446Z,65.07
2018-02-11T06:31:13.310Z,57.20
2018-02-11T06:31:47.308Z,64.65
2018-02-11T06:32:21.233Z,61.15
2018-02-11T06:32:55.236Z,74.07
2018-02-11T06:33:29.088Z,67.90
2018-02-11T06:34:03.181Z,70.45
2018-02-11T06:34:37.076Z,62.95
2018-02-11T06:35:10.964Z,64.43
2018-02-11T06:35:44.881Z,68.37
2018-02-11T06:36:18.926Z,68.50
2018-02-11T06:36:52.803Z,64.55
2018-02-11T06:37:26.706Z,60.95
2018-02-11T06:38:00.615Z,61.35
2018-02-11T06:38:34.520Z,62.20
2018-02-11T06:39:08.565Z,59.30
2018-02-11T06:39:42.448Z,60.20
2018-02-11T06:40:16.327Z,61.88
2018-02-11T06:40:50.198Z,66.55
2018-02-11T06:41:24.094Z,63.08
2018-02-11T06:41:57.981Z,73.37
2018-02-11T06:42:31.863Z,72.05
2018-02-11T06:43:05.732Z,69.00
2018-02-11T06:43:39.855Z,66.10
2018-02-11T06:44:13.754Z,61.53
2018-02-11T06:44:47.611Z,56.72
2018-02-11T06:45:21.632Z,61.88
2018-02-11T06:45:55.525Z,59.97
2018-02-11T06:46:29.491Z,61.55
2018-02-11T06:47:03.353Z,59.15
2018-02-11T06:47:37.236Z,58.75
2018-02-11T06:48:11.170Z,65.40
2018-02-11T06:48:45.222Z,70.80
2018-02-11T06:49:19.121Z,55.42
2018-02-11T06:49:53.006Z,56.10
2018-02-11T06:50:26.887Z,60.08
2018-02-11T06:51:00.777Z,61.33
2018-02-11T06:51:34.911Z,59.67
2018-02-11T06:52:08.769Z,61.92
2018-02-11T06:52:42.788Z,58.95
2018-02-11T06:53:16.761Z,54.83
2018-02-11T06:53:50.975Z,59.20
2018-02-11T06:54:24.832Z,65.47
2018-02-11T06:54:58.756Z,56.22
2018-02-11T06:55:32.861Z,60.30
2018-02-11T06:56:06.793Z,59.20
2018-02-11T06:56:40.649Z,59.20
2018-02-11T06:57:14.541Z,55.60
2018-02-11T06:57:48.556Z,56.13
2018-02-11T06:58:22.425Z,50.90
2018-02-11T06:58:56.285Z,53.13
2018-02-11T06:59:30.194Z,59.88
2018-02-11T07:00:04.103Z,54.80
2018-02-11T07:00:38.144Z,61.10
2018-02-11T07:01:12.165Z,57.10
2018-02-11T07:01:46.072Z,64.25
2018-02-11T07:02:20.004Z,51.78
2018-02-11T07:02:53.856Z,55.38
2018-02-11T07:03:27.785Z,53.10
2018-02-11T07:04:01.880Z,56.30
2018-02-11T07:04:35.949Z,53.17
2018-02-11T07:05:10.089Z,49.47
2018-02-11T07:05:44.025Z,58.22
2018-02-11T07:06:17.897Z,47.60
2018-02-11T07:06:51.789Z,49.80
2018-02-11T07:07:25.669Z,54.72
2018-02-11T07:07:59.593Z,53.40
2018-02-11T07:08:33.520Z,49.90
2018-02-11T07:09:07.541Z,46.67
2018-02-11T07:09:42.168Z,46.28
2018-02-11T07:10:16.061Z,53.92
2018-02-11T07:10:50.108Z,50.30
2018-02-11T07:11:23.970Z,52.97
2018-02-11T07:11:57.838Z,50.65
2018-02-11T07:12:31.716Z,49.42
2018-02-11T07:13:05.564Z,51.53
2018-02-11T07:13:39.522Z,51.92
2018-02-11T07:14:13.408Z,46.70
2018-02-11T07:14:47.330Z,50.90
2018-02-11T07:15:21.254Z,50.70
2018-02-11T07:15:55.202Z,53.78
2018-02-11T07:16:29.132Z,50.83
2018-02-11T07:17:03.248Z,49.75
2018-02-11T07:17:37.123Z,49.22
2018-02-11T07:18:10.994Z,48.28
2018-02-11T07:18:45.109Z,46.20
2018-02-11T07:19:19.096Z,50.72
2018-02-11T07:19:53.001Z,48.83